sensor_id;sensor_type;location;lat;lon;timestamp;P1;durP1;ratioP1;P2;durP2;ratioP2
1296;SDS011;641;48.492;9.184;2022-07-29T00:00:12;9.93;;;6.07;;
1296;SDS011;641;48.492;9.184;2022-07-29T00:02:38;11.03;;;5.70;;
1296;SDS011;641;48.492;9.184;2022-07-29T00:05:04;10.43;;;5.80;;
1296;SDS011;641;48.492;9.184;2022-07-29T00:07:30;11.60;;;6.87;;
1296;SDS011;641;48.492;9.184;2022-07-29T00:09:56;12.93;;;6.40;;
1296;SDS011;641;48.492;9.184;2022-07-29T00:12:22;11.17;;;6.03;;
1296;SDS011;641;48.492;9.184;2022-07-29T00:14:49;10.07;;;5.37;;
1296;SDS011;641;48.492;9.184;2022-07-29T00:17:15;12.33;;;6.60;;
1296;SDS011;641;48.492;9.184;2022-07-29T00:19:40;9.23;;;4.70;;
1296;SDS011;641;48.492;9.184;2022-07-29T00:22:06;10.03;;;4.40;;
1296;SDS011;641;48.492;9.184;2022-07-29T00:24:32;11.63;;;5.63;;
1296;SDS011;641;48.492;9.184;2022-07-29T00:26:57;13.83;;;5.17;;
1296;SDS011;641;48.492;9.184;2022-07-29T00:29:23;9.53;;;4.07;;
1296;SDS011;641;48.492;9.184;2022-07-29T00:31:49;9.97;;;4.50;;
1296;SDS011;641;48.492;9.184;2022-07-29T00:34:15;8.10;;;3.87;;
1296;SDS011;641;48.492;9.184;2022-07-29T00:36:59;11.80;;;5.53;;
1296;SDS011;641;48.492;9.184;2022-07-29T00:39:24;14.50;;;5.70;;
1296;SDS011;641;48.492;9.184;2022-07-29T00:41:50;13.53;;;5.80;;
1296;SDS011;641;48.492;9.184;2022-07-29T00:44:16;16.83;;;6.83;;
1296;SDS011;641;48.492;9.184;2022-07-29T00:46:41;10.80;;;6.07;;
1296;SDS011;641;48.492;9.184;2022-07-29T00:49:07;12.17;;;5.67;;
1296;SDS011;641;48.492;9.184;2022-07-29T00:51:36;12.63;;;6.17;;
1296;SDS011;641;48.492;9.184;2022-07-29T00:54:02;12.50;;;7.07;;
1296;SDS011;641;48.492;9.184;2022-07-29T00:56:32;12.53;;;7.60;;
1296;SDS011;641;48.492;9.184;2022-07-29T00:58:58;16.43;;;6.97;;
1296;SDS011;641;48.492;9.184;2022-07-29T01:01:25;12.00;;;6.60;;
1296;SDS011;641;48.492;9.184;2022-07-29T01:03:51;15.87;;;6.60;;
1296;SDS011;641;48.492;9.184;2022-07-29T01:06:17;10.53;;;6.13;;
1296;SDS011;641;48.492;9.184;2022-07-29T01:08:44;10.10;;;5.70;;
1296;SDS011;641;48.492;9.184;2022-07-29T01:11:12;16.13;;;5.40;;
1296;SDS011;641;48.492;9.184;2022-07-29T01:13:41;11.43;;;6.10;;
1296;SDS011;641;48.492;9.184;2022-07-29T01:16:19;11.00;;;6.03;;
1296;SDS011;641;48.492;9.184;2022-07-29T01:18:50;14.93;;;5.80;;
1296;SDS011;641;48.492;9.184;2022-07-29T01:26:57;11.93;;;6.17;;
1296;SDS011;641;48.492;9.184;2022-07-29T01:29:41;10.40;;;5.37;;
1296;SDS011;641;48.492;9.184;2022-07-29T01:32:19;10.80;;;5.20;;
1296;SDS011;641;48.492;9.184;2022-07-29T01:37:19;9.87;;;4.93;;
1296;SDS011;641;48.492;9.184;2022-07-29T01:39:51;10.83;;;6.03;;
1296;SDS011;641;48.492;9.184;2022-07-29T01:42:36;10.73;;;5.40;;
1296;SDS011;641;48.492;9.184;2022-07-29T01:48:10;9.13;;;5.10;;
1296;SDS011;641;48.492;9.184;2022-07-29T01:50:53;13.20;;;6.80;;
1296;SDS011;641;48.492;9.184;2022-07-29T01:53:32;9.20;;;4.67;;
1296;SDS011;641;48.492;9.184;2022-07-29T01:56:02;13.37;;;5.37;;
1296;SDS011;641;48.492;9.184;2022-07-29T01:58:29;12.07;;;5.10;;
1296;SDS011;641;48.492;9.184;2022-07-29T02:00:57;9.63;;;4.60;;
1296;SDS011;641;48.492;9.184;2022-07-29T02:03:24;9.30;;;4.67;;
1296;SDS011;641;48.492;9.184;2022-07-29T02:05:52;10.70;;;5.50;;
1296;SDS011;641;48.492;9.184;2022-07-29T02:08:19;11.07;;;5.47;;
1296;SDS011;641;48.492;9.184;2022-07-29T02:10:47;12.67;;;5.13;;
1296;SDS011;641;48.492;9.184;2022-07-29T02:13:15;8.97;;;4.37;;
1296;SDS011;641;48.492;9.184;2022-07-29T02:15:43;10.67;;;5.47;;
1296;SDS011;641;48.492;9.184;2022-07-29T02:18:13;10.07;;;4.97;;
1296;SDS011;641;48.492;9.184;2022-07-29T02:20:47;9.60;;;5.03;;
1296;SDS011;641;48.492;9.184;2022-07-29T02:23:17;15.97;;;5.10;;
1296;SDS011;641;48.492;9.184;2022-07-29T02:25:46;9.23;;;5.30;;
1296;SDS011;641;48.492;9.184;2022-07-29T02:28:15;10.83;;;5.47;;
1296;SDS011;641;48.492;9.184;2022-07-29T02:30:42;12.10;;;6.30;;
1296;SDS011;641;48.492;9.184;2022-07-29T02:33:09;11.10;;;5.73;;
1296;SDS011;641;48.492;9.184;2022-07-29T02:35:38;11.40;;;5.73;;
1296;SDS011;641;48.492;9.184;2022-07-29T02:38:06;9.17;;;5.03;;
1296;SDS011;641;48.492;9.184;2022-07-29T02:40:52;11.03;;;5.60;;
1296;SDS011;641;48.492;9.184;2022-07-29T02:43:20;11.87;;;5.87;;
1296;SDS011;641;48.492;9.184;2022-07-29T02:45:49;11.27;;;6.90;;
1296;SDS011;641;48.492;9.184;2022-07-29T02:48:18;12.20;;;6.20;;
1296;SDS011;641;48.492;9.184;2022-07-29T02:50:48;11.10;;;6.23;;
1296;SDS011;641;48.492;9.184;2022-07-29T02:53:18;13.67;;;7.03;;
1296;SDS011;641;48.492;9.184;2022-07-29T02:55:57;13.90;;;7.13;;
1296;SDS011;641;48.492;9.184;2022-07-29T02:58:40;14.23;;;6.20;;
1296;SDS011;641;48.492;9.184;2022-07-29T03:01:14;10.00;;;5.30;;
1296;SDS011;641;48.492;9.184;2022-07-29T03:03:45;10.60;;;5.30;;
1296;SDS011;641;48.492;9.184;2022-07-29T03:06:13;10.60;;;5.43;;
1296;SDS011;641;48.492;9.184;2022-07-29T03:08:40;12.03;;;5.50;;
1296;SDS011;641;48.492;9.184;2022-07-29T03:11:07;11.13;;;5.90;;
1296;SDS011;641;48.492;9.184;2022-07-29T03:13:34;10.40;;;5.00;;
1296;SDS011;641;48.492;9.184;2022-07-29T03:16:00;9.87;;;5.90;;
1296;SDS011;641;48.492;9.184;2022-07-29T03:18:26;11.10;;;5.27;;
1296;SDS011;641;48.492;9.184;2022-07-29T03:20:52;12.20;;;7.00;;
1296;SDS011;641;48.492;9.184;2022-07-29T03:23:19;11.97;;;5.80;;
1296;SDS011;641;48.492;9.184;2022-07-29T03:25:47;15.00;;;6.03;;
1296;SDS011;641;48.492;9.184;2022-07-29T03:28:13;12.77;;;6.47;;
1296;SDS011;641;48.492;9.184;2022-07-29T03:30:39;10.87;;;6.40;;
1296;SDS011;641;48.492;9.184;2022-07-29T03:33:05;10.60;;;6.03;;
1296;SDS011;641;48.492;9.184;2022-07-29T03:35:30;10.60;;;6.00;;
1296;SDS011;641;48.492;9.184;2022-07-29T03:37:56;11.77;;;5.93;;
1296;SDS011;641;48.492;9.184;2022-07-29T03:40:25;12.07;;;6.60;;
1296;SDS011;641;48.492;9.184;2022-07-29T03:43:00;15.13;;;7.50;;
1296;SDS011;641;48.492;9.184;2022-07-29T03:45:29;11.87;;;6.80;;
1296;SDS011;641;48.492;9.184;2022-07-29T03:47:59;11.87;;;6.70;;
1296;SDS011;641;48.492;9.184;2022-07-29T03:50:37;15.00;;;6.83;;
1296;SDS011;641;48.492;9.184;2022-07-29T03:53:03;12.60;;;7.13;;
1296;SDS011;641;48.492;9.184;2022-07-29T03:55:29;14.23;;;7.70;;
1296;SDS011;641;48.492;9.184;2022-07-29T03:58:01;12.43;;;7.37;;
1296;SDS011;641;48.492;9.184;2022-07-29T04:00:28;14.20;;;6.70;;
1296;SDS011;641;48.492;9.184;2022-07-29T04:02:55;11.33;;;6.60;;
1296;SDS011;641;48.492;9.184;2022-07-29T04:05:21;13.03;;;7.70;;
1296;SDS011;641;48.492;9.184;2022-07-29T04:11:09;19.93;;;7.63;;
1296;SDS011;641;48.492;9.184;2022-07-29T04:13:34;13.40;;;7.20;;
1296;SDS011;641;48.492;9.184;2022-07-29T04:16:00;15.77;;;8.60;;
1296;SDS011;641;48.492;9.184;2022-07-29T04:18:25;12.87;;;7.23;;
1296;SDS011;641;48.492;9.184;2022-07-29T04:20:51;13.43;;;7.80;;
1296;SDS011;641;48.492;9.184;2022-07-29T04:23:17;16.50;;;8.27;;
1296;SDS011;641;48.492;9.184;2022-07-29T04:25:42;13.10;;;7.30;;
1296;SDS011;641;48.492;9.184;2022-07-29T04:28:08;12.70;;;7.60;;
1296;SDS011;641;48.492;9.184;2022-07-29T04:30:35;13.97;;;8.20;;
1296;SDS011;641;48.492;9.184;2022-07-29T04:33:01;15.13;;;8.27;;
1296;SDS011;641;48.492;9.184;2022-07-29T04:35:33;13.20;;;8.73;;
1296;SDS011;641;48.492;9.184;2022-07-29T04:38:00;13.10;;;8.90;;
1296;SDS011;641;48.492;9.184;2022-07-29T04:40:27;14.87;;;9.40;;
1296;SDS011;641;48.492;9.184;2022-07-29T04:42:52;15.13;;;10.00;;
1296;SDS011;641;48.492;9.184;2022-07-29T04:45:18;14.40;;;9.30;;
1296;SDS011;641;48.492;9.184;2022-07-29T04:47:43;13.10;;;9.30;;
1296;SDS011;641;48.492;9.184;2022-07-29T04:50:09;15.00;;;9.47;;
1296;SDS011;641;48.492;9.184;2022-07-29T04:52:35;16.13;;;10.33;;
1296;SDS011;641;48.492;9.184;2022-07-29T04:55:01;14.63;;;10.70;;
1296;SDS011;641;48.492;9.184;2022-07-29T04:57:28;17.40;;;10.90;;
1296;SDS011;641;48.492;9.184;2022-07-29T04:59:53;18.50;;;11.53;;
1296;SDS011;641;48.492;9.184;2022-07-29T05:02:19;17.77;;;10.83;;
1296;SDS011;641;48.492;9.184;2022-07-29T05:04:45;18.23;;;10.60;;
1296;SDS011;641;48.492;9.184;2022-07-29T05:07:10;17.20;;;10.80;;
1296;SDS011;641;48.492;9.184;2022-07-29T05:09:36;15.50;;;10.90;;
1296;SDS011;641;48.492;9.184;2022-07-29T05:12:01;14.90;;;10.80;;
1296;SDS011;641;48.492;9.184;2022-07-29T05:14:27;15.97;;;11.53;;
1296;SDS011;641;48.492;9.184;2022-07-29T05:16:52;15.03;;;11.47;;
1296;SDS011;641;48.492;9.184;2022-07-29T05:19:21;19.17;;;11.80;;
1296;SDS011;641;48.492;9.184;2022-07-29T05:21:47;18.57;;;10.50;;
1296;SDS011;641;48.492;9.184;2022-07-29T05:24:13;16.23;;;11.33;;
1296;SDS011;641;48.492;9.184;2022-07-29T05:26:38;15.60;;;10.30;;
1296;SDS011;641;48.492;9.184;2022-07-29T05:29:04;16.13;;;9.90;;
1296;SDS011;641;48.492;9.184;2022-07-29T05:31:30;17.13;;;10.93;;
1296;SDS011;641;48.492;9.184;2022-07-29T05:33:56;18.13;;;11.63;;
1296;SDS011;641;48.492;9.184;2022-07-29T05:36:21;16.77;;;10.97;;
1296;SDS011;641;48.492;9.184;2022-07-29T05:38:47;14.63;;;9.90;;
1296;SDS011;641;48.492;9.184;2022-07-29T05:41:13;16.50;;;10.57;;
1296;SDS011;641;48.492;9.184;2022-07-29T05:43:38;13.97;;;10.23;;
1296;SDS011;641;48.492;9.184;2022-07-29T05:46:04;18.93;;;11.13;;
1296;SDS011;641;48.492;9.184;2022-07-29T05:48:29;14.50;;;9.93;;
1296;SDS011;641;48.492;9.184;2022-07-29T05:50:55;21.90;;;9.37;;
1296;SDS011;641;48.492;9.184;2022-07-29T05:53:21;13.97;;;9.50;;
1296;SDS011;641;48.492;9.184;2022-07-29T05:55:47;14.90;;;7.70;;
1296;SDS011;641;48.492;9.184;2022-07-29T05:58:13;31.97;;;9.50;;
1296;SDS011;641;48.492;9.184;2022-07-29T06:00:38;16.27;;;7.87;;
1296;SDS011;641;48.492;9.184;2022-07-29T06:03:04;13.73;;;7.57;;
1296;SDS011;641;48.492;9.184;2022-07-29T06:05:30;15.53;;;7.70;;
1296;SDS011;641;48.492;9.184;2022-07-29T06:07:56;10.43;;;6.30;;
1296;SDS011;641;48.492;9.184;2022-07-29T06:10:21;11.53;;;7.20;;
1296;SDS011;641;48.492;9.184;2022-07-29T06:12:47;11.63;;;6.47;;
1296;SDS011;641;48.492;9.184;2022-07-29T06:15:13;10.23;;;6.20;;
1296;SDS011;641;48.492;9.184;2022-07-29T06:17:38;13.67;;;6.57;;
1296;SDS011;641;48.492;9.184;2022-07-29T06:20:04;13.13;;;7.53;;
1296;SDS011;641;48.492;9.184;2022-07-29T06:22:30;11.20;;;7.03;;
1296;SDS011;641;48.492;9.184;2022-07-29T06:24:56;13.73;;;7.90;;
1296;SDS011;641;48.492;9.184;2022-07-29T06:27:21;13.87;;;7.50;;
1296;SDS011;641;48.492;9.184;2022-07-29T06:29:47;11.57;;;7.13;;
1296;SDS011;641;48.492;9.184;2022-07-29T06:32:13;11.43;;;6.10;;
1296;SDS011;641;48.492;9.184;2022-07-29T06:34:38;9.97;;;5.47;;
1296;SDS011;641;48.492;9.184;2022-07-29T06:37:07;11.00;;;6.43;;
1296;SDS011;641;48.492;9.184;2022-07-29T06:39:36;12.20;;;6.80;;
1296;SDS011;641;48.492;9.184;2022-07-29T06:42:05;12.17;;;7.07;;
1296;SDS011;641;48.492;9.184;2022-07-29T06:44:31;11.63;;;6.70;;
1296;SDS011;641;48.492;9.184;2022-07-29T06:47:00;11.70;;;7.20;;
1296;SDS011;641;48.492;9.184;2022-07-29T06:49:26;12.07;;;6.67;;
1296;SDS011;641;48.492;9.184;2022-07-29T06:51:52;11.87;;;6.07;;
1296;SDS011;641;48.492;9.184;2022-07-29T06:54:18;10.80;;;5.63;;
1296;SDS011;641;48.492;9.184;2022-07-29T06:56:44;9.30;;;5.23;;
1296;SDS011;641;48.492;9.184;2022-07-29T06:59:11;15.20;;;6.20;;
1296;SDS011;641;48.492;9.184;2022-07-29T07:01:38;9.53;;;5.20;;
1296;SDS011;641;48.492;9.184;2022-07-29T07:04:05;13.93;;;5.70;;
1296;SDS011;641;48.492;9.184;2022-07-29T07:06:33;10.97;;;5.27;;
1296;SDS011;641;48.492;9.184;2022-07-29T07:08:59;9.00;;;4.60;;
1296;SDS011;641;48.492;9.184;2022-07-29T07:11:25;9.10;;;4.87;;
1296;SDS011;641;48.492;9.184;2022-07-29T07:13:50;10.67;;;4.60;;
1296;SDS011;641;48.492;9.184;2022-07-29T07:16:16;12.97;;;5.00;;
1296;SDS011;641;48.492;9.184;2022-07-29T07:18:41;10.93;;;4.50;;
1296;SDS011;641;48.492;9.184;2022-07-29T07:21:07;11.93;;;4.47;;
1296;SDS011;641;48.492;9.184;2022-07-29T07:23:33;10.40;;;4.23;;
1296;SDS011;641;48.492;9.184;2022-07-29T07:25:58;11.53;;;5.57;;
1296;SDS011;641;48.492;9.184;2022-07-29T07:28:24;10.07;;;4.10;;
1296;SDS011;641;48.492;9.184;2022-07-29T07:30:49;9.00;;;4.30;;
1296;SDS011;641;48.492;9.184;2022-07-29T07:33:15;9.50;;;4.53;;
1296;SDS011;641;48.492;9.184;2022-07-29T07:35:41;10.03;;;4.37;;
1296;SDS011;641;48.492;9.184;2022-07-29T07:38:07;11.03;;;3.90;;
1296;SDS011;641;48.492;9.184;2022-07-29T07:40:32;9.70;;;4.17;;
1296;SDS011;641;48.492;9.184;2022-07-29T07:42:58;11.37;;;4.70;;
1296;SDS011;641;48.492;9.184;2022-07-29T07:45:24;11.67;;;4.90;;
1296;SDS011;641;48.492;9.184;2022-07-29T07:47:49;9.40;;;4.17;;
1296;SDS011;641;48.492;9.184;2022-07-29T07:50:15;11.10;;;4.17;;
1296;SDS011;641;48.492;9.184;2022-07-29T07:52:49;9.40;;;4.10;;
1296;SDS011;641;48.492;9.184;2022-07-29T07:55:20;10.50;;;3.90;;
1296;SDS011;641;48.492;9.184;2022-07-29T07:57:45;9.67;;;4.30;;
1296;SDS011;641;48.492;9.184;2022-07-29T08:00:15;11.07;;;5.00;;
1296;SDS011;641;48.492;9.184;2022-07-29T08:02:41;9.00;;;4.10;;
1296;SDS011;641;48.492;9.184;2022-07-29T08:05:08;10.57;;;3.60;;
1296;SDS011;641;48.492;9.184;2022-07-29T08:07:34;10.83;;;4.10;;
1296;SDS011;641;48.492;9.184;2022-07-29T08:09:59;8.30;;;3.60;;
1296;SDS011;641;48.492;9.184;2022-07-29T08:12:25;9.70;;;4.10;;
1296;SDS011;641;48.492;9.184;2022-07-29T08:14:51;9.60;;;4.73;;
1296;SDS011;641;48.492;9.184;2022-07-29T08:17:16;10.23;;;4.43;;
1296;SDS011;641;48.492;9.184;2022-07-29T08:19:42;10.33;;;3.83;;
1296;SDS011;641;48.492;9.184;2022-07-29T08:22:08;10.50;;;4.10;;
1296;SDS011;641;48.492;9.184;2022-07-29T08:24:33;10.70;;;5.00;;
1296;SDS011;641;48.492;9.184;2022-07-29T08:27:08;11.03;;;4.07;;
1296;SDS011;641;48.492;9.184;2022-07-29T08:29:34;9.63;;;4.13;;
1296;SDS011;641;48.492;9.184;2022-07-29T08:32:00;9.67;;;4.07;;
1296;SDS011;641;48.492;9.184;2022-07-29T08:34:26;8.07;;;3.80;;
1296;SDS011;641;48.492;9.184;2022-07-29T08:36:52;8.23;;;3.47;;
1296;SDS011;641;48.492;9.184;2022-07-29T08:39:17;13.73;;;3.83;;
1296;SDS011;641;48.492;9.184;2022-07-29T08:41:43;14.53;;;3.50;;
1296;SDS011;641;48.492;9.184;2022-07-29T08:44:08;10.73;;;4.57;;
1296;SDS011;641;48.492;9.184;2022-07-29T08:46:37;9.70;;;3.57;;
1296;SDS011;641;48.492;9.184;2022-07-29T08:49:04;10.40;;;4.50;;
1296;SDS011;641;48.492;9.184;2022-07-29T08:51:30;12.53;;;3.90;;
1296;SDS011;641;48.492;9.184;2022-07-29T08:53:57;9.70;;;3.83;;
1296;SDS011;641;48.492;9.184;2022-07-29T08:56:23;15.63;;;4.00;;
1296;SDS011;641;48.492;9.184;2022-07-29T08:58:49;9.13;;;3.20;;
1296;SDS011;641;48.492;9.184;2022-07-29T09:01:16;9.20;;;4.30;;
1296;SDS011;641;48.492;9.184;2022-07-29T09:03:46;8.70;;;3.50;;
1296;SDS011;641;48.492;9.184;2022-07-29T09:06:17;9.30;;;3.87;;
1296;SDS011;641;48.492;9.184;2022-07-29T09:08:44;9.77;;;4.00;;
1296;SDS011;641;48.492;9.184;2022-07-29T09:11:11;9.10;;;3.20;;
1296;SDS011;641;48.492;9.184;2022-07-29T09:13:37;8.90;;;3.93;;
1296;SDS011;641;48.492;9.184;2022-07-29T09:16:03;8.43;;;3.57;;
1296;SDS011;641;48.492;9.184;2022-07-29T09:18:36;10.90;;;4.10;;
1296;SDS011;641;48.492;9.184;2022-07-29T09:21:04;12.10;;;3.60;;
1296;SDS011;641;48.492;9.184;2022-07-29T09:26:33;9.50;;;3.93;;
1296;SDS011;641;48.492;9.184;2022-07-29T09:31:39;14.40;;;4.40;;
1296;SDS011;641;48.492;9.184;2022-07-29T09:34:10;13.77;;;4.17;;
1296;SDS011;641;48.492;9.184;2022-07-29T09:36:38;7.93;;;3.63;;
1296;SDS011;641;48.492;9.184;2022-07-29T09:39:11;9.53;;;4.87;;
1296;SDS011;641;48.492;9.184;2022-07-29T09:41:48;13.20;;;4.80;;
1296;SDS011;641;48.492;9.184;2022-07-29T09:44:18;12.27;;;4.10;;
1296;SDS011;641;48.492;9.184;2022-07-29T09:46:57;14.00;;;4.10;;
1296;SDS011;641;48.492;9.184;2022-07-29T09:49:27;7.90;;;3.63;;
1296;SDS011;641;48.492;9.184;2022-07-29T09:52:00;11.67;;;4.23;;
1296;SDS011;641;48.492;9.184;2022-07-29T09:54:26;11.03;;;4.40;;
1296;SDS011;641;48.492;9.184;2022-07-29T09:56:53;10.20;;;4.20;;
1296;SDS011;641;48.492;9.184;2022-07-29T09:59:19;9.43;;;3.70;;
1296;SDS011;641;48.492;9.184;2022-07-29T10:01:47;14.73;;;5.17;;
1296;SDS011;641;48.492;9.184;2022-07-29T10:04:15;11.47;;;4.40;;
1296;SDS011;641;48.492;9.184;2022-07-29T10:06:59;26.87;;;11.10;;
1296;SDS011;641;48.492;9.184;2022-07-29T10:09:26;10.10;;;4.13;;
1296;SDS011;641;48.492;9.184;2022-07-29T10:12:08;10.53;;;4.83;;
1296;SDS011;641;48.492;9.184;2022-07-29T10:14:36;8.47;;;4.10;;
1296;SDS011;641;48.492;9.184;2022-07-29T10:17:03;11.27;;;4.60;;
1296;SDS011;641;48.492;9.184;2022-07-29T10:19:29;11.07;;;4.60;;
1296;SDS011;641;48.492;9.184;2022-07-29T10:22:00;9.53;;;4.40;;
1296;SDS011;641;48.492;9.184;2022-07-29T10:24:29;10.87;;;4.90;;
1296;SDS011;641;48.492;9.184;2022-07-29T10:26:57;9.40;;;4.33;;
1296;SDS011;641;48.492;9.184;2022-07-29T10:29:27;9.77;;;4.63;;
1296;SDS011;641;48.492;9.184;2022-07-29T10:43:52;11.53;;;4.60;;
1296;SDS011;641;48.492;9.184;2022-07-29T10:46:34;9.40;;;4.63;;
1296;SDS011;641;48.492;9.184;2022-07-29T10:57:11;11.43;;;4.63;;
1296;SDS011;641;48.492;9.184;2022-07-29T10:59:37;8.23;;;4.10;;
1296;SDS011;641;48.492;9.184;2022-07-29T11:02:07;8.40;;;4.03;;
1296;SDS011;641;48.492;9.184;2022-07-29T11:07:28;15.70;;;4.80;;
1296;SDS011;641;48.492;9.184;2022-07-29T11:23:31;9.60;;;4.17;;
1296;SDS011;641;48.492;9.184;2022-07-29T11:26:13;10.40;;;4.27;;
1296;SDS011;641;48.492;9.184;2022-07-29T11:31:31;8.70;;;3.70;;
1296;SDS011;641;48.492;9.184;2022-07-29T11:39:43;8.37;;;3.93;;
1296;SDS011;641;48.492;9.184;2022-07-29T11:47:32;10.80;;;4.70;;
1296;SDS011;641;48.492;9.184;2022-07-29T11:49:59;7.83;;;3.77;;
1296;SDS011;641;48.492;9.184;2022-07-29T11:52:45;9.57;;;3.80;;
1296;SDS011;641;48.492;9.184;2022-07-29T11:55:22;13.50;;;4.40;;
1296;SDS011;641;48.492;9.184;2022-07-29T11:57:52;9.13;;;4.30;;
1296;SDS011;641;48.492;9.184;2022-07-29T12:00:31;10.73;;;4.27;;
1296;SDS011;641;48.492;9.184;2022-07-29T12:03:00;9.47;;;4.90;;
1296;SDS011;641;48.492;9.184;2022-07-29T12:08:24;11.30;;;4.13;;
1296;SDS011;641;48.492;9.184;2022-07-29T12:10:51;9.93;;;4.30;;
1296;SDS011;641;48.492;9.184;2022-07-29T12:13:20;12.50;;;4.20;;
1296;SDS011;641;48.492;9.184;2022-07-29T12:15:53;13.73;;;4.63;;
1296;SDS011;641;48.492;9.184;2022-07-29T12:18:23;9.50;;;4.73;;
1296;SDS011;641;48.492;9.184;2022-07-29T12:20:56;12.60;;;4.60;;
1296;SDS011;641;48.492;9.184;2022-07-29T12:23:23;10.00;;;4.87;;
1296;SDS011;641;48.492;9.184;2022-07-29T12:25:49;8.70;;;4.63;;
1296;SDS011;641;48.492;9.184;2022-07-29T12:28:16;10.40;;;5.20;;
1296;SDS011;641;48.492;9.184;2022-07-29T12:30:49;12.87;;;5.57;;
1296;SDS011;641;48.492;9.184;2022-07-29T12:33:22;13.93;;;6.30;;
1296;SDS011;641;48.492;9.184;2022-07-29T12:36:10;9.00;;;4.97;;
1296;SDS011;641;48.492;9.184;2022-07-29T12:38:35;10.37;;;5.00;;
1296;SDS011;641;48.492;9.184;2022-07-29T12:41:01;10.60;;;4.93;;
1296;SDS011;641;48.492;9.184;2022-07-29T12:43:28;8.97;;;4.47;;
1296;SDS011;641;48.492;9.184;2022-07-29T12:45:55;10.23;;;4.30;;
1296;SDS011;641;48.492;9.184;2022-07-29T12:48:34;11.27;;;4.87;;
1296;SDS011;641;48.492;9.184;2022-07-29T12:51:02;9.67;;;3.50;;
1296;SDS011;641;48.492;9.184;2022-07-29T12:53:28;11.57;;;4.30;;
1296;SDS011;641;48.492;9.184;2022-07-29T12:55:55;8.90;;;3.97;;
1296;SDS011;641;48.492;9.184;2022-07-29T12:58:40;9.83;;;4.70;;
1296;SDS011;641;48.492;9.184;2022-07-29T13:03:56;11.13;;;4.60;;
1296;SDS011;641;48.492;9.184;2022-07-29T13:11:27;9.40;;;4.20;;
1296;SDS011;641;48.492;9.184;2022-07-29T13:13:53;10.30;;;4.50;;
1296;SDS011;641;48.492;9.184;2022-07-29T13:16:19;11.00;;;4.60;;
1296;SDS011;641;48.492;9.184;2022-07-29T13:18:44;15.93;;;5.00;;
1296;SDS011;641;48.492;9.184;2022-07-29T13:21:11;10.33;;;5.20;;
1296;SDS011;641;48.492;9.184;2022-07-29T13:23:37;10.40;;;4.43;;
1296;SDS011;641;48.492;9.184;2022-07-29T13:26:09;8.83;;;4.60;;
1296;SDS011;641;48.492;9.184;2022-07-29T13:28:41;8.67;;;4.07;;
1296;SDS011;641;48.492;9.184;2022-07-29T13:31:06;8.80;;;4.37;;
1296;SDS011;641;48.492;9.184;2022-07-29T13:33:32;13.97;;;4.90;;
1296;SDS011;641;48.492;9.184;2022-07-29T13:35:58;10.10;;;4.90;;
1296;SDS011;641;48.492;9.184;2022-07-29T13:38:23;11.40;;;5.47;;
1296;SDS011;641;48.492;9.184;2022-07-29T13:40:49;9.53;;;4.30;;
1296;SDS011;641;48.492;9.184;2022-07-29T13:43:15;10.90;;;5.47;;
1296;SDS011;641;48.492;9.184;2022-07-29T13:45:41;10.60;;;4.27;;
1296;SDS011;641;48.492;9.184;2022-07-29T13:48:06;8.40;;;4.00;;
1296;SDS011;641;48.492;9.184;2022-07-29T13:50:32;10.20;;;3.97;;
1296;SDS011;641;48.492;9.184;2022-07-29T13:52:58;8.50;;;3.80;;
1296;SDS011;641;48.492;9.184;2022-07-29T13:55:24;9.57;;;3.83;;
1296;SDS011;641;48.492;9.184;2022-07-29T13:57:49;12.90;;;4.63;;
1296;SDS011;641;48.492;9.184;2022-07-29T14:00:15;8.60;;;4.07;;
1296;SDS011;641;48.492;9.184;2022-07-29T14:02:41;10.20;;;4.20;;
1296;SDS011;641;48.492;9.184;2022-07-29T14:05:07;8.90;;;4.40;;
1296;SDS011;641;48.492;9.184;2022-07-29T14:07:34;9.37;;;4.00;;
1296;SDS011;641;48.492;9.184;2022-07-29T14:10:00;11.60;;;4.57;;
1296;SDS011;641;48.492;9.184;2022-07-29T14:12:26;8.03;;;3.47;;
1296;SDS011;641;48.492;9.184;2022-07-29T14:14:51;8.77;;;3.83;;
1296;SDS011;641;48.492;9.184;2022-07-29T14:17:17;8.00;;;3.60;;
1296;SDS011;641;48.492;9.184;2022-07-29T14:19:43;9.07;;;4.27;;
1296;SDS011;641;48.492;9.184;2022-07-29T14:22:08;8.80;;;3.87;;
1296;SDS011;641;48.492;9.184;2022-07-29T14:24:35;11.40;;;3.90;;
1296;SDS011;641;48.492;9.184;2022-07-29T14:27:02;9.97;;;4.30;;
1296;SDS011;641;48.492;9.184;2022-07-29T14:29:28;8.70;;;3.70;;
1296;SDS011;641;48.492;9.184;2022-07-29T14:31:54;7.67;;;3.50;;
1296;SDS011;641;48.492;9.184;2022-07-29T14:34:20;12.50;;;4.17;;
1296;SDS011;641;48.492;9.184;2022-07-29T14:36:45;9.40;;;4.03;;
1296;SDS011;641;48.492;9.184;2022-07-29T14:39:11;9.67;;;4.13;;
1296;SDS011;641;48.492;9.184;2022-07-29T14:41:37;12.20;;;3.80;;
1296;SDS011;641;48.492;9.184;2022-07-29T14:44:03;8.63;;;4.23;;
1296;SDS011;641;48.492;9.184;2022-07-29T14:46:28;8.73;;;3.63;;
1296;SDS011;641;48.492;9.184;2022-07-29T14:48:54;9.20;;;3.43;;
1296;SDS011;641;48.492;9.184;2022-07-29T14:51:20;9.00;;;4.00;;
1296;SDS011;641;48.492;9.184;2022-07-29T14:53:45;11.50;;;5.00;;
1296;SDS011;641;48.492;9.184;2022-07-29T14:56:11;8.30;;;4.00;;
1296;SDS011;641;48.492;9.184;2022-07-29T14:58:37;8.97;;;3.70;;
1296;SDS011;641;48.492;9.184;2022-07-29T15:01:03;13.83;;;4.80;;
1296;SDS011;641;48.492;9.184;2022-07-29T15:03:29;10.57;;;4.33;;
1296;SDS011;641;48.492;9.184;2022-07-29T15:05:56;8.23;;;3.83;;
1296;SDS011;641;48.492;9.184;2022-07-29T15:08:22;11.70;;;3.90;;
1296;SDS011;641;48.492;9.184;2022-07-29T15:10:47;13.50;;;4.10;;
1296;SDS011;641;48.492;9.184;2022-07-29T15:13:13;8.20;;;3.67;;
1296;SDS011;641;48.492;9.184;2022-07-29T15:15:39;11.50;;;4.20;;
1296;SDS011;641;48.492;9.184;2022-07-29T15:18:06;9.53;;;4.00;;
1296;SDS011;641;48.492;9.184;2022-07-29T15:20:31;11.07;;;4.70;;
1296;SDS011;641;48.492;9.184;2022-07-29T15:22:57;8.10;;;4.00;;
1296;SDS011;641;48.492;9.184;2022-07-29T15:25:23;14.80;;;3.90;;
1296;SDS011;641;48.492;9.184;2022-07-29T15:27:49;8.70;;;3.93;;
1296;SDS011;641;48.492;9.184;2022-07-29T15:30:15;9.00;;;3.93;;
1296;SDS011;641;48.492;9.184;2022-07-29T15:32:42;10.30;;;4.30;;
1296;SDS011;641;48.492;9.184;2022-07-29T15:35:10;10.27;;;4.00;;
1296;SDS011;641;48.492;9.184;2022-07-29T15:37:37;10.53;;;4.30;;
1296;SDS011;641;48.492;9.184;2022-07-29T15:40:04;9.80;;;4.23;;
1296;SDS011;641;48.492;9.184;2022-07-29T15:42:31;10.00;;;4.90;;
1296;SDS011;641;48.492;9.184;2022-07-29T15:44:57;12.63;;;5.13;;
1296;SDS011;641;48.492;9.184;2022-07-29T15:47:27;9.33;;;4.70;;
1296;SDS011;641;48.492;9.184;2022-07-29T15:49:53;8.57;;;4.63;;
1296;SDS011;641;48.492;9.184;2022-07-29T15:52:19;8.73;;;4.60;;
1296;SDS011;641;48.492;9.184;2022-07-29T15:54:45;8.27;;;4.00;;
1296;SDS011;641;48.492;9.184;2022-07-29T15:57:11;11.13;;;4.70;;
1296;SDS011;641;48.492;9.184;2022-07-29T15:59:37;13.30;;;4.80;;
1296;SDS011;641;48.492;9.184;2022-07-29T16:02:02;10.43;;;4.70;;
1296;SDS011;641;48.492;9.184;2022-07-29T16:04:28;8.73;;;4.10;;
1296;SDS011;641;48.492;9.184;2022-07-29T16:06:54;9.70;;;5.10;;
1296;SDS011;641;48.492;9.184;2022-07-29T16:09:21;13.10;;;4.93;;
1296;SDS011;641;48.492;9.184;2022-07-29T16:11:47;8.47;;;4.30;;
1296;SDS011;641;48.492;9.184;2022-07-29T16:14:14;8.87;;;3.97;;
1296;SDS011;641;48.492;9.184;2022-07-29T16:16:41;8.20;;;4.17;;
1296;SDS011;641;48.492;9.184;2022-07-29T16:19:06;9.87;;;4.03;;
1296;SDS011;641;48.492;9.184;2022-07-29T16:21:33;8.70;;;4.27;;
1296;SDS011;641;48.492;9.184;2022-07-29T16:23:59;9.10;;;4.13;;
1296;SDS011;641;48.492;9.184;2022-07-29T16:26:26;8.33;;;4.30;;
1296;SDS011;641;48.492;9.184;2022-07-29T16:28:51;9.53;;;4.30;;
1296;SDS011;641;48.492;9.184;2022-07-29T16:31:17;13.07;;;4.53;;
1296;SDS011;641;48.492;9.184;2022-07-29T16:33:46;11.60;;;3.70;;
1296;SDS011;641;48.492;9.184;2022-07-29T16:36:12;10.80;;;4.90;;
1296;SDS011;641;48.492;9.184;2022-07-29T16:38:37;12.37;;;4.70;;
1296;SDS011;641;48.492;9.184;2022-07-29T16:41:03;9.43;;;4.10;;
1296;SDS011;641;48.492;9.184;2022-07-29T16:43:28;9.57;;;3.80;;